Time;durP1;ratioP1;P1;durP2;ratioP2;P2;SDS_P1;SDS_P2;PMS_P1;PMS_P2;Temp;Humidity;BMP_temperature;BMP_pressure;BME280_temperature;BME280_humidity;BME280_pressure;Samples;Min_cycle;Max_cycle;Signal;HPM_P1;HPM_P2
2023/04/18 00:00:18;;;;;;;17.97;14.37;;;11.20;99.90;;;;;;5035985;28;20404;-72
2023/04/18 00:02:44;;;;;;;16.07;14.47;;;11.30;99.90;;;;;;5035687;28;20468;-71
2023/04/18 00:05:11;;;;;;;18.30;16.10;;;11.20;99.90;;;;;;5054096;28;20173;-72
2023/04/18 00:07:37;;;;;;;17.93;16.10;;;11.20;99.90;;;;;;5054197;28;20412;-73
2023/04/18 00:10:05;;;;;;;16.00;14.30;;;11.10;99.90;;;;;;5052079;28;20833;-73
2023/04/18 00:12:33;;;;;;;16.83;15.23;;;11.20;99.90;;;;;;5053382;28;20427;-71
2023/04/18 00:14:59;;;;;;;15.90;14.30;;;10.80;99.90;;;;;;5053667;28;20391;-73
2023/04/18 00:17:26;;;;;;;15.97;14.30;;;10.70;99.90;;;;;;5053512;28;20401;-72
2023/04/18 00:19:52;;;;;;;16.13;14.40;;;10.90;99.90;;;;;;5035639;28;20492;-72
2023/04/18 00:22:21;;;;;;;17.77;15.90;;;10.80;99.90;;;;;;5053128;28;20420;-72
2023/04/18 00:24:48;;;;;;;16.67;14.97;;;10.80;99.90;;;;;;5053139;28;20504;-73
2023/04/18 00:27:14;;;;;;;16.03;13.63;;;10.90;99.90;;;;;;5036618;28;20750;-72
2023/04/18 00:29:40;;;;;;;17.97;15.70;;;11.00;99.90;;;;;;5033617;28;20413;-71
2023/04/18 00:32:05;;;;;;;15.90;14.30;;;11.10;99.90;;;;;;5032260;28;20435;-71
2023/04/18 00:34:31;;;;;;;16.50;14.80;;;11.00;99.90;;;;;;5031916;28;20198;-72
2023/04/18 00:36:56;;;;;;;14.40;13.00;;;11.10;99.90;;;;;;5032365;28;20774;-71
2023/04/18 00:39:22;;;;;;;17.13;15.33;;;11.20;99.90;;;;;;5031706;28;20269;-74
2023/04/18 00:41:48;;;;;;;16.77;15.17;;;11.30;99.90;;;;;;5031492;28;20197;-72
2023/04/18 00:44:13;;;;;;;17.83;16.03;;;11.40;99.90;;;;;;5031806;28;20550;-73
2023/04/18 00:46:39;;;;;;;16.80;15.20;;;11.30;99.90;;;;;;5031843;28;20179;-72
2023/04/18 00:49:05;;;;;;;15.27;13.77;;;11.30;99.90;;;;;;5031801;28;20179;-72
2023/04/18 00:51:32;;;;;;;17.97;16.07;;;11.30;99.90;;;;;;5031679;28;20194;-71
2023/04/18 00:53:58;;;;;;;16.57;14.97;;;11.30;99.90;;;;;;5037362;28;20449;-72
2023/04/18 00:56:24;;;;;;;16.73;14.93;;;11.30;99.90;;;;;;5050978;28;20731;-72
2023/04/18 00:58:50;;;;;;;20.60;16.73;;;11.30;99.90;;;;;;5034855;28;20172;-72
2023/04/18 01:01:16;;;;;;;16.60;14.90;;;11.30;99.90;;;;;;5034595;28;20420;-71
2023/04/18 01:03:42;;;;;;;16.50;14.80;;;11.30;99.90;;;;;;5035259;28;20182;-72
2023/04/18 01:06:08;;;;;;;15.93;14.27;;;11.40;99.90;;;;;;5035463;28;20421;-73
2023/04/18 01:08:35;;;;;;;15.50;14.00;;;11.30;99.90;;;;;;5035580;28;20257;-72
2023/04/18 01:11:00;;;;;;;16.13;14.53;;;11.30;99.90;;;;;;5034734;28;20421;-71
2023/04/18 01:13:26;;;;;;;15.67;13.83;;;10.90;99.90;;;;;;5034936;28;20551;-73
2023/04/18 01:15:53;;;;;;;17.40;15.57;;;10.50;99.90;;;;;;5019451;28;20162;-72
2023/04/18 01:18:19;;;;;;;22.00;16.10;;;10.40;99.90;;;;;;5019168;28;20167;-72
2023/04/18 01:20:51;;;;;;;16.60;14.40;;;10.60;99.90;;;;;;5035256;28;20466;-73
2023/04/18 01:23:18;;;;;;;20.43;17.20;;;10.50;99.90;;;;;;5034887;28;20437;-73
2023/04/18 01:25:45;;;;;;;17.33;15.63;;;10.40;99.90;;;;;;5034068;28;20429;-73
2023/04/18 01:28:13;;;;;;;16.70;14.97;;;10.30;99.90;;;;;;5035535;28;20834;-72
2023/04/18 01:30:38;;;;;;;17.17;15.00;;;10.30;99.90;;;;;;5034914;28;20409;-73
2023/04/18 01:33:05;;;;;;;17.60;15.47;;;10.20;99.90;;;;;;5034449;28;20480;-72
2023/04/18 01:35:31;;;;;;;15.57;13.97;;;10.30;99.90;;;;;;5037404;28;20220;-71
2023/04/18 01:37:57;;;;;;;17.03;15.33;;;10.40;99.90;;;;;;5038608;28;20419;-71
2023/04/18 01:40:23;;;;;;;18.93;15.70;;;10.50;99.90;;;;;;5038228;28;20993;-72
2023/04/18 01:42:49;;;;;;;16.10;14.40;;;10.60;99.90;;;;;;5056440;28;20193;-72
2023/04/18 01:45:15;;;;;;;15.00;13.40;;;10.60;99.90;;;;;;5038659;28;20434;-72
2023/04/18 01:47:42;;;;;;;16.50;14.70;;;10.60;99.90;;;;;;5038338;28;20450;-72
2023/04/18 01:50:08;;;;;;;17.53;15.73;;;10.50;99.90;;;;;;5056643;28;20405;-72
2023/04/18 01:52:34;;;;;;;17.63;15.20;;;10.60;99.90;;;;;;5038186;28;20786;-71
2023/04/18 01:55:01;;;;;;;16.70;14.90;;;10.80;99.90;;;;;;5037678;28;20426;-72
2023/04/18 01:57:27;;;;;;;18.33;16.20;;;10.50;99.90;;;;;;5038340;28;20181;-72
2023/04/18 01:59:53;;;;;;;15.63;13.80;;;10.30;99.90;;;;;;5038169;28;20413;-72
2023/04/18 02:02:18;;;;;;;15.87;14.27;;;10.20;99.90;;;;;;5037977;28;20452;-72
2023/04/18 02:04:44;;;;;;;25.97;17.10;;;10.10;99.90;;;;;;5038279;28;20169;-72
2023/04/18 02:07:10;;;;;;;17.80;14.27;;;10.00;99.90;;;;;;5038244;28;20547;-71
2023/04/18 02:09:35;;;;;;;17.60;14.00;;;9.80;99.90;;;;;;5037860;28;20282;-71
2023/04/18 02:12:01;;;;;;;17.00;15.20;;;9.80;99.90;;;;;;5021253;28;20596;-71
2023/04/18 02:14:34;;;;;;;17.43;15.27;;;9.70;99.90;;;;;;5037895;28;20633;-72
2023/04/18 02:17:00;;;;;;;17.20;14.63;;;9.80;99.90;;;;;;5038255;28;20197;-72
2023/04/18 02:19:27;;;;;;;16.63;14.83;;;9.90;99.90;;;;;;5054422;28;20436;-72
2023/04/18 02:21:53;;;;;;;18.60;14.70;;;9.80;99.90;;;;;;5054526;28;20191;-71
2023/04/18 02:24:18;;;;;;;16.70;14.20;;;9.90;99.90;;;;;;5054009;28;20420;-72
2023/04/18 02:26:44;;;;;;;18.87;16.23;;;9.90;99.90;;;;;;5054173;28;20649;-72
2023/04/18 02:29:10;;;;;;;15.63;14.03;;;9.90;99.90;;;;;;5037822;28;20601;-73
2023/04/18 02:31:39;;;;;;;19.03;16.13;;;9.70;99.90;;;;;;5020750;28;20482;-71
2023/04/18 02:34:06;;;;;;;16.73;14.90;;;9.70;99.90;;;;;;5054289;28;20205;-72
2023/04/18 02:36:31;;;;;;;16.07;13.50;;;9.70;99.90;;;;;;5054201;28;20414;-72
2023/04/18 02:38:57;;;;;;;18.80;15.97;;;9.50;99.90;;;;;;5053998;28;20471;-72
2023/04/18 02:41:23;;;;;;;17.93;16.03;;;9.60;99.90;;;;;;5054841;28;20163;-71
2023/04/18 02:43:48;;;;;;;22.57;16.73;;;9.50;99.90;;;;;;5053952;28;20179;-72
2023/04/18 02:46:14;;;;;;;18.80;16.70;;;9.50;99.90;;;;;;5053832;28;20260;-72
2023/04/18 02:48:40;;;;;;;18.77;16.43;;;9.60;99.90;;;;;;5053447;28;20557;-73
2023/04/18 02:51:07;;;;;;;18.90;16.80;;;9.50;99.90;;;;;;5053775;28;20175;-72
2023/04/18 02:53:33;;;;;;;21.63;16.20;;;9.50;99.90;;;;;;5053786;28;20201;-73
2023/04/18 02:55:59;;;;;;;17.30;15.50;;;9.70;99.90;;;;;;5053291;28;20452;-72
2023/04/18 02:58:26;;;;;;;18.50;16.50;;;9.60;99.90;;;;;;5037106;28;20420;-72
2023/04/18 03:00:52;;;;;;;19.03;16.00;;;9.40;99.90;;;;;;5037123;28;21011;-72
2023/04/18 03:03:18;;;;;;;23.73;18.30;;;9.60;99.90;;;;;;5036831;28;20454;-72
2023/04/18 03:05:44;;;;;;;21.93;19.50;;;9.50;99.90;;;;;;5037051;28;20416;-73
2023/04/18 03:08:09;;;;;;;20.47;15.80;;;9.40;99.90;;;;;;5037012;28;20601;-72
2023/04/18 03:10:35;;;;;;;18.80;15.50;;;9.40;99.90;;;;;;5036341;28;20177;-72
2023/04/18 03:13:01;;;;;;;17.20;15.47;;;9.60;99.90;;;;;;5036775;28;20199;-72
2023/04/18 03:15:26;;;;;;;15.63;14.03;;;9.70;99.90;;;;;;5036850;28;20178;-72
2023/04/18 03:17:52;;;;;;;16.77;15.07;;;9.60;99.90;;;;;;5036758;28;20170;-72
2023/04/18 03:20:18;;;;;;;17.13;15.30;;;9.60;99.90;;;;;;5036945;28;20830;-72
2023/04/18 03:22:44;;;;;;;17.90;14.97;;;9.40;99.90;;;;;;5036583;28;20199;-72
2023/04/18 03:25:10;;;;;;;16.40;14.53;;;9.40;99.90;;;;;;5035468;28;20425;-72
2023/04/18 03:27:35;;;;;;;15.13;13.07;;;9.50;99.90;;;;;;5036736;28;20554;-73
2023/04/18 03:30:01;;;;;;;17.13;15.37;;;9.50;99.90;;;;;;5036369;28;20412;-73
2023/04/18 03:32:27;;;;;;;15.30;13.70;;;9.30;99.90;;;;;;5036538;28;20205;-71
2023/04/18 03:34:53;;;;;;;15.13;13.53;;;9.30;99.90;;;;;;5036935;28;20417;-72
2023/04/18 03:37:19;;;;;;;16.30;14.60;;;9.30;99.90;;;;;;5036510;28;20611;-73
2023/04/18 03:39:44;;;;;;;17.17;15.37;;;9.60;99.90;;;;;;5036448;28;20461;-73
2023/04/18 03:42:10;;;;;;;15.47;13.80;;;9.70;99.90;;;;;;5035923;28;20243;-72
2023/04/18 03:44:35;;;;;;;16.63;13.50;;;9.40;99.90;;;;;;5036376;28;20187;-74
2023/04/18 03:47:01;;;;;;;16.50;14.07;;;9.20;99.90;;;;;;5036256;28;20183;-75
2023/04/18 03:49:27;;;;;;;18.33;14.47;;;9.10;99.90;;;;;;5036189;28;20188;-73
2023/04/18 03:51:52;;;;;;;16.97;15.13;;;9.20;99.90;;;;;;5036061;28;20198;-72
2023/04/18 03:54:18;;;;;;;16.10;14.40;;;9.20;99.90;;;;;;5035802;28;20633;-72
2023/04/18 03:56:44;;;;;;;15.10;13.50;;;9.40;99.90;;;;;;5035246;28;20181;-72
2023/04/18 03:59:10;;;;;;;15.40;13.80;;;9.50;99.90;;;;;;5035890;28;20207;-72
2023/04/18 04:01:36;;;;;;;16.33;14.60;;;9.60;99.90;;;;;;5035764;28;20437;-72
2023/04/18 04:04:03;;;;;;;16.23;14.53;;;9.60;99.90;;;;;;5035868;28;20466;-73
2023/04/18 04:06:28;;;;;;;18.47;14.70;;;9.80;99.90;;;;;;5035921;28;20411;-72
2023/04/18 04:08:54;;;;;;;16.90;15.20;;;9.70;99.90;;;;;;5035677;28;20499;-73
2023/04/18 04:11:20;;;;;;;16.73;12.90;;;9.70;99.90;;;;;;5035001;28;20186;-73
2023/04/18 04:13:46;;;;;;;18.20;16.27;;;9.60;99.90;;;;;;5051975;28;20533;-71
2023/04/18 04:16:12;;;;;;;16.37;14.70;;;9.70;99.90;;;;;;5052267;28;20442;-72
2023/04/18 04:18:38;;;;;;;15.53;13.73;;;9.80;99.90;;;;;;5052313;28;20178;-73
2023/04/18 04:21:04;;;;;;;18.57;14.77;;;9.30;99.90;;;;;;5052453;28;20913;-73
2023/04/18 04:23:30;;;;;;;17.30;14.23;;;9.30;99.90;;;;;;5051994;28;20269;-73
2023/04/18 04:25:55;;;;;;;15.70;14.10;;;9.00;99.90;;;;;;5051923;28;20929;-72
2023/04/18 04:28:22;;;;;;;16.23;14.50;;;9.20;99.90;;;;;;5035509;28;20181;-72
2023/04/18 04:30:49;;;;;;;15.10;13.50;;;9.00;99.90;;;;;;5035506;28;20186;-72
2023/04/18 04:33:18;;;;;;;15.93;14.27;;;9.00;99.90;;;;;;5053369;28;20452;-72
2023/04/18 04:35:45;;;;;;;16.83;13.83;;;9.10;99.90;;;;;;5027683;28;20448;-73
2023/04/18 04:38:11;;;;;;;17.70;14.73;;;9.20;99.90;;;;;;5026146;28;20873;-71
2023/04/18 04:40:36;;;;;;;18.50;16.60;;;9.10;99.90;;;;;;5042870;28;20520;-73
2023/04/18 04:43:02;;;;;;;24.30;15.93;;;9.10;99.90;;;;;;5052074;28;20205;-73
2023/04/18 04:45:28;;;;;;;16.07;14.43;;;9.10;99.90;;;;;;5053153;28;20178;-74
2023/04/18 04:47:53;;;;;;;16.87;15.00;;;9.10;99.90;;;;;;5051682;28;20236;-74
2023/04/18 04:50:19;;;;;;;16.63;14.50;;;9.20;99.90;;;;;;5050138;28;20351;-73
2023/04/18 04:52:45;;;;;;;17.10;15.40;;;9.40;99.90;;;;;;5050567;28;20205;-72
2023/04/18 04:55:10;;;;;;;17.93;16.00;;;9.30;99.90;;;;;;5051043;28;20182;-72
2023/04/18 04:57:36;;;;;;;16.80;14.77;;;9.50;99.90;;;;;;5034804;28;20248;-73
2023/04/18 05:00:04;;;;;;;17.27;14.17;;;9.60;99.90;;;;;;5034891;28;20167;-72
2023/04/18 05:02:29;;;;;;;15.67;13.83;;;9.10;99.90;;;;;;5033701;28;20605;-74
2023/04/18 05:04:55;;;;;;;17.63;15.83;;;9.30;99.90;;;;;;5034928;28;20982;-73
2023/04/18 05:07:21;;;;;;;16.93;15.13;;;9.20;99.90;;;;;;5034810;28;20185;-73
2023/04/18 05:09:46;;;;;;;16.40;14.80;;;9.10;99.90;;;;;;5017237;28;20170;-72
2023/04/18 05:12:12;;;;;;;16.97;15.30;;;9.30;99.90;;;;;;5034026;28;20206;-72
2023/04/18 05:14:37;;;;;;;17.70;15.80;;;9.00;99.90;;;;;;5051208;28;20193;-72
2023/04/18 05:17:03;;;;;;;16.50;14.77;;;8.90;99.90;;;;;;5050534;28;20180;-72
2023/04/18 05:19:29;;;;;;;16.60;14.80;;;8.70;99.90;;;;;;5034831;28;20361;-73
2023/04/18 05:21:55;;;;;;;17.33;15.53;;;8.90;99.90;;;;;;5034687;28;20193;-73
2023/04/18 05:24:20;;;;;;;16.17;14.57;;;9.20;99.90;;;;;;5034248;28;20185;-72
2023/04/18 05:26:46;;;;;;;19.60;17.37;;;9.30;99.90;;;;;;5034306;28;20445;-73
2023/04/18 05:29:12;;;;;;;16.60;15.00;;;9.50;99.90;;;;;;5034599;28;20176;-71
2023/04/18 05:31:37;;;;;;;18.57;16.60;;;9.60;99.90;;;;;;5034505;28;20197;-73
2023/04/18 05:34:03;;;;;;;17.23;15.43;;;9.40;99.90;;;;;;5051020;28;20232;-72
2023/04/18 05:36:28;;;;;;;17.43;15.67;;;9.10;99.90;;;;;;5050878;28;20638;-74
2023/04/18 05:38:54;;;;;;;19.37;16.73;;;9.00;99.90;;;;;;5050631;28;20171;-72
2023/04/18 05:41:20;;;;;;;18.70;16.70;;;9.00;99.90;;;;;;5050161;28;20175;-73
2023/04/18 05:43:54;;;;;;;18.97;16.50;;;9.10;99.90;;;;;;5054665;28;20191;-73
2023/04/18 05:46:20;;;;;;;18.50;16.60;;;9.30;99.90;;;;;;5050660;28;20265;-73
2023/04/18 05:48:45;;;;;;;17.17;15.43;;;9.40;99.90;;;;;;5051226;28;20493;-70
2023/04/18 05:51:11;;;;;;;17.37;15.50;;;9.30;99.90;;;;;;5050412;28;20546;-71
2023/04/18 05:53:37;;;;;;;20.10;16.60;;;9.30;99.90;;;;;;5050620;28;20281;-73
2023/04/18 05:56:02;;;;;;;19.07;16.17;;;9.20;99.90;;;;;;5050356;28;20165;-73
2023/04/18 05:58:28;;;;;;;15.30;13.80;;;9.30;99.90;;;;;;5051090;28;20176;-72
2023/04/18 06:00:54;;;;;;;17.13;15.33;;;9.50;99.90;;;;;;5050824;28;20649;-73
2023/04/18 06:03:19;;;;;;;18.37;16.30;;;9.30;99.90;;;;;;5050769;28;20690;-74
2023/04/18 06:05:45;;;;;;;17.93;16.03;;;9.40;99.90;;;;;;5050760;28;20262;-72
2023/04/18 06:08:11;;;;;;;18.70;16.10;;;9.40;99.90;;;;;;5084967;23;20226;-70
2023/04/18 06:10:36;;;;;;;18.10;15.90;;;9.60;99.90;;;;;;5050308;28;20249;-70
2023/04/18 06:13:02;;;;;;;17.80;15.40;;;9.60;99.90;;;;;;5050568;28;20201;-70
2023/04/18 06:15:28;;;;;;;16.70;14.90;;;9.60;99.90;;;;;;5050794;28;20175;-70
2023/04/18 06:17:53;;;;;;;18.33;16.40;;;9.70;99.90;;;;;;5067312;28;20194;-70
2023/04/18 06:20:19;;;;;;;18.20;15.40;;;9.80;99.90;;;;;;5055847;28;20171;-70
2023/04/18 06:22:45;;;;;;;17.10;15.03;;;9.70;99.90;;;;;;5051269;28;20602;-69
2023/04/18 06:25:11;;;;;;;17.63;14.33;;;9.70;99.90;;;;;;5050961;28;20175;-69
2023/04/18 06:27:37;;;;;;;19.30;17.20;;;9.70;99.90;;;;;;5050904;28;20573;-69
2023/04/18 06:30:04;;;;;;;21.17;16.27;;;9.60;99.90;;;;;;5051241;28;20262;-70
2023/04/18 06:32:29;;;;;;;24.87;16.93;;;9.80;99.90;;;;;;5050966;28;20505;-69
2023/04/18 06:34:55;;;;;;;18.80;15.10;;;9.70;99.90;;;;;;5036165;28;20983;-70
2023/04/18 06:37:21;;;;;;;19.30;16.87;;;10.00;99.90;;;;;;5030954;28;20199;-70
2023/04/18 06:39:46;;;;;;;17.93;16.03;;;10.30;99.90;;;;;;5030752;28;20231;-70
2023/04/18 06:42:12;;;;;;;17.17;15.40;;;10.30;99.90;;;;;;5031268;28;20176;-70
2023/04/18 06:44:38;;;;;;;17.97;16.07;;;10.20;99.90;;;;;;5031863;28;20279;-69
2023/04/18 06:47:04;;;;;;;16.10;14.40;;;10.00;99.90;;;;;;5033877;28;20204;-70
2023/04/18 06:49:30;;;;;;;17.60;15.80;;;10.00;99.90;;;;;;5034261;28;20446;-70
2023/04/18 06:51:55;;;;;;;18.13;16.30;;;9.90;99.90;;;;;;5034136;28;20851;-70
2023/04/18 06:54:21;;;;;;;20.67;16.73;;;9.70;99.90;;;;;;5033873;28;20699;-70
2023/04/18 06:56:47;;;;;;;16.33;14.63;;;9.70;99.90;;;;;;5033312;28;20191;-70
2023/04/18 06:59:12;;;;;;;17.80;16.00;;;9.70;99.90;;;;;;5034649;28;20185;-70
2023/04/18 07:01:42;;;;;;;17.97;16.10;;;9.80;99.90;;;;;;5034081;28;20702;-70
2023/04/18 07:04:08;;;;;;;19.90;15.67;;;10.10;99.90;;;;;;5033986;28;20189;-70
2023/04/18 07:06:34;;;;;;;18.33;16.43;;;9.80;99.90;;;;;;5033756;28;20418;-70
2023/04/18 07:09:00;;;;;;;18.20;16.03;;;9.70;99.90;;;;;;5033813;28;20181;-70
2023/04/18 07:11:27;;;;;;;17.23;15.43;;;9.60;99.90;;;;;;5028556;28;20422;-69
2023/04/18 07:13:52;;;;;;;17.30;15.20;;;9.60;99.90;;;;;;5030385;28;20199;-70
2023/04/18 07:16:19;;;;;;;17.60;15.67;;;9.70;99.90;;;;;;5038123;28;20416;-70
2023/04/18 07:18:44;;;;;;;17.63;15.27;;;9.90;99.90;;;;;;5040066;28;20171;-70
2023/04/18 07:21:10;;;;;;;19.57;16.63;;;10.00;99.90;;;;;;5022407;28;20464;-70
2023/04/18 07:23:36;;;;;;;18.23;16.07;;;10.00;99.90;;;;;;5041015;28;20172;-70
2023/04/18 07:26:04;;;;;;;19.23;15.50;;;10.10;99.90;;;;;;5035061;28;20180;-70
2023/04/18 07:28:30;;;;;;;16.53;14.77;;;10.20;99.90;;;;;;5030372;28;20444;-71
2023/04/18 07:30:55;;;;;;;18.30;16.30;;;10.20;99.90;;;;;;5034413;28;20420;-70
2023/04/18 07:33:22;;;;;;;17.13;15.33;;;10.20;99.90;;;;;;5029785;28;20455;-69
2023/04/18 07:35:48;;;;;;;15.67;13.97;;;10.40;99.90;;;;;;5031155;28;20174;-71
2023/04/18 07:38:14;;;;;;;15.90;14.30;;;10.60;99.90;;;;;;5033890;28;20438;-71
2023/04/18 07:40:40;;;;;;;15.40;13.90;;;10.80;99.90;;;;;;5034628;28;20507;-70
2023/04/18 07:43:06;;;;;;;19.70;17.00;;;10.90;99.90;;;;;;5032412;28;20427;-70
2023/04/18 07:45:34;;;;;;;17.70;14.57;;;10.50;99.90;;;;;;5036670;28;20175;-70
2023/04/18 07:48:00;;;;;;;17.50;15.47;;;10.70;99.90;;;;;;5041144;28;20192;-70
2023/04/18 07:50:26;;;;;;;15.70;14.10;;;10.60;99.90;;;;;;5021994;28;20407;-69
2023/04/18 07:52:51;;;;;;;17.20;15.50;;;10.20;99.90;;;;;;5022880;28;20526;-70
2023/04/18 07:55:17;;;;;;;17.77;15.87;;;10.20;99.90;;;;;;5037242;28;20271;-69
2023/04/18 07:57:43;;;;;;;16.47;14.57;;;10.30;99.90;;;;;;5029154;28;20690;-70
2023/04/18 08:00:11;;;;;;;17.80;15.90;;;10.50;99.90;;;;;;5029491;28;20571;-70
2023/04/18 08:02:36;;;;;;;15.57;13.67;;;10.50;99.90;;;;;;5029849;28;20201;-70
2023/04/18 08:05:02;;;;;;;15.90;14.30;;;10.50;99.90;;;;;;5042089;28;20418;-70
2023/04/18 08:07:28;;;;;;;15.80;13.60;;;10.50;99.90;;;;;;5038316;28;20260;-71
2023/04/18 08:09:53;;;;;;;16.77;14.60;;;10.60;99.90;;;;;;5022154;28;20160;-70
2023/04/18 08:12:19;;;;;;;16.00;14.23;;;10.80;99.90;;;;;;5039880;28;20221;-70
2023/04/18 08:14:45;;;;;;;15.83;14.20;;;10.90;99.90;;;;;;5038675;28;20249;-69
2023/04/18 08:17:10;;;;;;;16.60;14.87;;;10.80;99.90;;;;;;5050287;28;20198;-69
2023/04/18 08:19:36;;;;;;;16.17;14.47;;;11.20;99.90;;;;;;5069227;28;20174;-72
2023/04/18 08:22:09;;;;;;;17.33;15.47;;;11.20;99.90;;;;;;5069228;28;20662;-71
2023/04/18 08:24:37;;;;;;;17.20;15.40;;;11.20;99.90;;;;;;5054274;28;20168;-70
2023/04/18 08:27:02;;;;;;;16.40;14.77;;;11.40;99.90;;;;;;5048678;28;20433;-71
2023/04/18 08:29:28;;;;;;;17.37;14.63;;;11.50;99.90;;;;;;5049186;28;20932;-71
2023/04/18 08:31:54;;;;;;;17.13;15.10;;;11.70;99.90;;;;;;5048898;28;20179;-70
2023/04/18 08:34:19;;;;;;;20.93;15.17;;;11.30;99.90;;;;;;5048928;28;20217;-70
2023/04/18 08:36:45;;;;;;;18.50;15.13;;;11.20;99.90;;;;;;5036051;28;20212;-70
2023/04/18 08:39:11;;;;;;;18.47;14.70;;;11.30;99.90;;;;;;5012492;28;20259;-70
2023/04/18 08:41:36;;;;;;;18.00;15.03;;;11.50;99.90;;;;;;5011756;28;20175;-70
2023/04/18 08:44:02;;;;;;;17.93;15.97;;;11.70;99.90;;;;;;5012283;28;20187;-70
2023/04/18 08:46:32;;;;;;;15.50;13.83;;;11.90;99.90;;;;;;5024099;28;20179;-70
2023/04/18 08:48:58;;;;;;;16.40;14.80;;;12.00;99.90;;;;;;5031919;28;20417;-70
2023/04/18 08:51:24;;;;;;;15.67;14.07;;;11.60;99.90;;;;;;5031992;28;20464;-70
2023/04/18 08:53:50;;;;;;;16.93;15.23;;;11.80;99.90;;;;;;5031883;28;20456;-70
2023/04/18 08:56:16;;;;;;;16.30;14.70;;;12.20;99.90;;;;;;5031420;28;20501;-70
2023/04/18 08:58:43;;;;;;;15.33;13.57;;;12.40;99.90;;;;;;5031735;28;20186;-70
2023/04/18 09:01:09;;;;;;;15.00;13.50;;;12.50;99.90;;;;;;5031937;28;20708;-70
2023/04/18 09:03:38;;;;;;;16.40;14.80;;;12.80;99.90;;;;;;5031829;28;20416;-69
2023/04/18 09:06:17;;;;;;;16.10;14.10;;;12.90;99.90;;;;;;5031750;28;20175;-69
2023/04/18 09:09:00;;;;;;;16.43;14.73;;;12.60;99.90;;;;;;5025356;28;20456;-70
2023/04/18 09:11:31;;;;;;;16.57;14.93;;;12.60;99.90;;;;;;5038586;28;20492;-69
2023/04/18 09:14:01;;;;;;;19.53;16.20;;;12.60;99.90;;;;;;5038947;28;20983;-70
2023/04/18 09:16:28;;;;;;;17.57;15.33;;;12.40;99.90;;;;;;5041390;28;20468;-70
2023/04/18 09:19:16;;;;;;;16.63;14.97;;;12.50;99.90;;;;;;5022756;28;20432;-69
2023/04/18 09:21:47;;;;;;;17.50;15.60;;;12.30;99.90;;;;;;5020109;28;20402;-69
2023/04/18 09:24:21;;;;;;;18.53;16.53;;;12.10;99.90;;;;;;5020523;28;20713;-70
2023/04/18 09:26:48;;;;;;;19.90;16.43;;;11.90;99.90;;;;;;5039425;28;20445;-70
2023/04/18 09:29:16;;;;;;;18.27;16.33;;;11.70;99.90;;;;;;5036047;28;20422;-71
2023/04/18 09:31:56;;;;;;;17.20;15.50;;;11.60;99.90;;;;;;5022033;28;20432;-69
2023/04/18 09:34:25;;;;;;;18.27;15.83;;;11.60;99.90;;;;;;5036096;28;20564;-70
2023/04/18 09:37:11;;;;;;;18.60;16.70;;;11.70;99.90;;;;;;5041089;28;20507;-70
2023/04/18 09:39:42;;;;;;;21.53;16.00;;;11.60;99.90;;;;;;5031146;28;20408;-70
2023/04/18 09:42:11;;;;;;;18.80;16.80;;;11.60;99.90;;;;;;5022757;28;20432;-70
2023/04/18 09:44:37;;;;;;;16.73;14.83;;;11.90;99.90;;;;;;5044251;28;20418;-70
2023/04/18 09:47:06;;;;;;;19.10;17.07;;;12.20;99.90;;;;;;5019521;28;20495;-70
2023/04/18 09:49:32;;;;;;;18.43;16.23;;;12.30;99.90;;;;;;5027807;28;20783;-70
2023/04/18 09:51:59;;;;;;;20.97;16.70;;;12.40;99.90;;;;;;5039000;28;20409;-71
2023/04/18 09:54:28;;;;;;;19.07;16.80;;;12.30;99.90;;;;;;5038310;28;20192;-70
2023/04/18 09:56:55;;;;;;;15.33;13.83;;;12.20;99.90;;;;;;5049363;28;20986;-70
2023/04/18 10:00:07;;;;;;;17.50;15.73;;;12.70;99.90;;;;;;5035300;28;20414;-70
2023/04/18 10:02:43;;;;;;;18.03;14.70;;;13.00;99.90;;;;;;4975397;28;20406;-70
2023/04/18 10:05:11;;;;;;;16.30;14.60;;;13.30;99.90;;;;;;4975293;28;20466;-70
2023/04/18 10:07:37;;;;;;;17.77;15.90;;;13.40;99.90;;;;;;5019111;28;20447;-71
2023/04/18 10:10:03;;;;;;;15.93;14.37;;;13.50;99.90;;;;;;5039008;28;20513;-70
2023/04/18 10:12:29;;;;;;;16.37;14.63;;;13.70;99.90;;;;;;5051190;28;20182;-70
2023/04/18 10:14:55;;;;;;;16.07;14.47;;;14.10;99.90;;;;;;5051504;28;20203;-70
2023/04/18 10:17:21;;;;;;;15.70;14.10;;;14.10;99.90;;;;;;5048302;28;20188;-70
2023/04/18 10:20:05;;;;;;;15.13;13.53;;;14.00;99.90;;;;;;5034832;28;20844;-70
2023/04/18 10:22:31;;;;;;;15.63;14.03;;;14.10;99.90;;;;;;5026244;28;20174;-70
2023/04/18 10:24:57;;;;;;;15.97;14.37;;;13.90;99.90;;;;;;5026874;28;20426;-70
2023/04/18 10:27:48;;;;;;;15.47;13.93;;;13.80;99.90;;;;;;5026724;28;20429;-70
2023/04/18 10:30:17;;;;;;;15.97;13.63;;;13.80;99.90;;;;;;5031407;28;20167;-70
2023/04/18 10:32:45;;;;;;;15.20;13.53;;;13.90;99.90;;;;;;5034558;28;20414;-70
2023/04/18 10:35:11;;;;;;;15.27;13.67;;;14.30;99.90;;;;;;5034365;28;20519;-70
2023/04/18 10:37:50;;;;;;;14.33;12.93;;;14.20;99.90;;;;;;5028864;28;20940;-70
2023/04/18 10:40:16;;;;;;;15.53;13.93;;;14.20;99.90;;;;;;5037790;28;20430;-70
2023/04/18 10:42:50;;;;;;;13.73;12.47;;;14.30;99.90;;;;;;5023185;28;20401;-70
2023/04/18 10:45:20;;;;;;;13.67;12.37;;;14.10;99.90;;;;;;5030671;28;20440;-71
2023/04/18 10:47:45;;;;;;;13.47;11.80;;;14.30;99.90;;;;;;5025374;28;20414;-70
2023/04/18 10:50:11;;;;;;;14.40;12.53;;;14.10;99.90;;;;;;5025952;28;20414;-71
2023/04/18 10:52:37;;;;;;;13.67;12.37;;;14.00;99.90;;;;;;5034198;28;20657;-71
2023/04/18 10:55:27;;;;;;;12.30;11.10;;;14.00;99.90;;;;;;5033799;28;20428;-71
2023/04/18 10:57:55;;;;;;;13.10;11.80;;;14.20;99.90;;;;;;5034067;28;20434;-71
2023/04/18 11:00:22;;;;;;;12.77;10.97;;;14.50;99.90;;;;;;5033858;28;20495;-70
2023/04/18 11:02:50;;;;;;;12.70;11.50;;;14.30;99.90;;;;;;5033901;28;20423;-71
2023/04/18 11:05:21;;;;;;;11.73;10.63;;;14.20;99.90;;;;;;5025693;28;20402;-71
2023/04/18 11:07:49;;;;;;;11.60;10.50;;;14.40;99.90;;;;;;5046674;28;20455;-71
2023/04/18 11:10:24;;;;;;;10.97;9.97;;;14.60;99.90;;;;;;5035310;28;20439;-71
2023/04/18 11:12:51;;;;;;;11.10;10.00;;;14.70;99.90;;;;;;5033709;28;20932;-70
2023/04/18 11:15:22;;;;;;;11.50;10.23;;;14.90;99.90;;;;;;5033808;28;20403;-71
2023/04/18 11:18:04;;;;;;;12.37;11.10;;;14.80;99.90;;;;;;5033865;28;20429;-70
2023/04/18 11:20:37;;;;;;;10.90;9.77;;;14.70;99.90;;;;;;5034002;28;20406;-71
2023/04/18 11:23:03;;;;;;;10.00;9.00;;;14.90;99.90;;;;;;5035220;28;20414;-71
2023/04/18 11:25:39;;;;;;;13.33;11.53;;;14.90;99.90;;;;;;5051768;28;20420;-71
2023/04/18 11:28:05;;;;;;;10.77;9.67;;;15.10;99.90;;;;;;5085540;28;20204;-71
2023/04/18 11:30:38;;;;;;;10.63;9.40;;;15.10;99.90;;;;;;5056754;28;20421;-70
2023/04/18 11:33:08;;;;;;;10.00;9.00;;;15.00;99.90;;;;;;5056165;28;20194;-71
2023/04/18 11:35:38;;;;;;;9.63;8.60;;;15.40;99.90;;;;;;5046475;28;20428;-71
2023/04/18 11:38:05;;;;;;;10.83;9.40;;;15.40;99.90;;;;;;5031673;28;20436;-71
2023/04/18 11:40:31;;;;;;;9.80;8.80;;;15.20;99.90;;;;;;5029899;28;20424;-70
2023/04/18 11:43:00;;;;;;;9.77;8.83;;;15.20;99.90;;;;;;5029013;28;20418;-71
2023/04/18 11:45:26;;;;;;;9.67;8.67;;;15.10;99.90;;;;;;5029852;28;20187;-70
2023/04/18 11:47:58;;;;;;;8.93;8.10;;;15.20;99.90;;;;;;5030069;28;20529;-70
2023/04/18 11:50:25;;;;;;;10.10;9.03;;;15.30;99.90;;;;;;5029828;28;20414;-69
2023/04/18 11:52:53;;;;;;;9.50;8.50;;;14.80;99.90;;;;;;5029944;28;20435;-69
2023/04/18 11:55:22;;;;;;;9.77;8.37;;;14.60;99.90;;;;;;5039063;28;20440;-70
2023/04/18 11:57:58;;;;;;;10.13;8.17;;;14.40;99.90;;;;;;5038935;28;20448;-70
2023/04/18 12:00:36;;;;;;;9.83;8.40;;;14.30;99.90;;;;;;5023475;28;20494;-71
2023/04/18 12:03:09;;;;;;;8.97;7.90;;;14.30;99.90;;;;;;5023724;28;20410;-71
2023/04/18 12:05:36;;;;;;;10.60;9.00;;;14.50;99.90;;;;;;5036786;28;20419;-70
2023/04/18 12:08:12;;;;;;;8.50;7.70;;;14.80;99.90;;;;;;5046206;28;20455;-70
2023/04/18 12:11:05;;;;;;;7.60;6.80;;;15.00;99.90;;;;;;5034709;28;20463;-71
2023/04/18 12:13:31;;;;;;;9.77;7.90;;;15.20;99.90;;;;;;5041037;28;20489;-70
2023/04/18 12:16:00;;;;;;;11.50;7.90;;;15.30;99.90;;;;;;5021526;28;20940;-71
2023/04/18 12:18:26;;;;;;;10.90;8.97;;;15.30;99.90;;;;;;5039404;28;20444;-71
2023/04/18 12:20:55;;;;;;;9.10;8.20;;;15.10;99.90;;;;;;5042840;28;20408;-71
2023/04/18 12:23:47;;;;;;;9.27;8.43;;;15.20;99.90;;;;;;5040782;28;20212;-71
2023/04/18 12:26:19;;;;;;;8.90;7.77;;;15.00;99.90;;;;;;5016863;28;20423;-69
2023/04/18 12:28:49;;;;;;;9.43;8.57;;;14.70;99.90;;;;;;5013687;28;20419;-72
2023/04/18 12:31:15;;;;;;;9.07;8.17;;;14.80;99.90;;;;;;5030932;28;20419;-71
2023/04/18 12:33:41;;;;;;;8.10;7.40;;;15.00;99.90;;;;;;5031554;28;21010;-71